sensor_id;sensor_type;location;lat;lon;timestamp;temperature;humidity
21772;DHT22;11047;47.904;8.110;2023-08-07T00:00:45;9.80;99.90
21772;DHT22;11047;47.904;8.110;2023-08-07T00:03:12;9.80;99.90
21772;DHT22;11047;47.904;8.110;2023-08-07T00:05:45;9.80;99.90
21772;DHT22;11047;47.904;8.110;2023-08-07T00:08:11;9.70;99.90
21772;DHT22;11047;47.904;8.110;2023-08-07T00:10:40;9.70;99.90
21772;DHT22;11047;47.904;8.110;2023-08-07T00:13:07;9.70;99.90
21772;DHT22;11047;47.904;8.110;2023-08-07T00:15:34;9.70;99.90
21772;DHT22;11047;47.904;8.110;2023-08-07T00:18:00;9.80;99.90
21772;DHT22;11047;47.904;8.110;2023-08-07T00:20:27;9.80;99.90
21772;DHT22;11047;47.904;8.110;2023-08-07T00:22:54;9.80;99.90
21772;DHT22;11047;47.904;8.110;2023-08-07T00:25:21;9.80;99.90
21772;DHT22;11047;47.904;8.110;2023-08-07T00:27:49;9.80;99.90
21772;DHT22;11047;47.904;8.110;2023-08-07T00:30:16;9.80;99.90
21772;DHT22;11047;47.904;8.110;2023-08-07T00:32:43;9.80;99.90
21772;DHT22;11047;47.904;8.110;2023-08-07T00:35:10;9.70;99.90
21772;DHT22;11047;47.904;8.110;2023-08-07T00:37:37;9.80;99.90
21772;DHT22;11047;47.904;8.110;2023-08-07T00:40:05;9.80;99.90
21772;DHT22;11047;47.904;8.110;2023-08-07T00:42:32;9.80;99.90
21772;DHT22;11047;47.904;8.110;2023-08-07T00:45:00;9.70;99.90
21772;DHT22;11047;47.904;8.110;2023-08-07T00:47:28;9.70;99.90
21772;DHT22;11047;47.904;8.110;2023-08-07T00:49:56;9.70;99.90
21772;DHT22;11047;47.904;8.110;2023-08-07T00:52:23;9.60;99.90
21772;DHT22;11047;47.904;8.110;2023-08-07T00:54:50;9.70;99.90
21772;DHT22;11047;47.904;8.110;2023-08-07T00:57:17;9.70;99.90
21772;DHT22;11047;47.904;8.110;2023-08-07T00:59:48;9.70;99.90
21772;DHT22;11047;47.904;8.110;2023-08-07T01:02:17;9.70;99.90
21772;DHT22;11047;47.904;8.110;2023-08-07T01:04:44;9.70;99.90
21772;DHT22;11047;47.904;8.110;2023-08-07T01:07:11;9.80;99.90
21772;DHT22;11047;47.904;8.110;2023-08-07T01:09:38;9.80;99.90
21772;DHT22;11047;47.904;8.110;2023-08-07T01:12:12;9.70;99.90
21772;DHT22;11047;47.904;8.110;2023-08-07T01:14:48;9.70;99.90
21772;DHT22;11047;47.904;8.110;2023-08-07T01:17:20;9.70;99.90
21772;DHT22;11047;47.904;8.110;2023-08-07T01:19:49;9.70;99.90
21772;DHT22;11047;47.904;8.110;2023-08-07T01:22:19;9.60;99.90
21772;DHT22;11047;47.904;8.110;2023-08-07T01:24:47;9.60;99.90
21772;DHT22;11047;47.904;8.110;2023-08-07T01:27:31;9.60;99.90
21772;DHT22;11047;47.904;8.110;2023-08-07T01:30:06;9.60;99.90
21772;DHT22;11047;47.904;8.110;2023-08-07T01:32:43;9.60;99.90
21772;DHT22;11047;47.904;8.110;2023-08-07T01:35:15;9.70;99.90
21772;DHT22;11047;47.904;8.110;2023-08-07T01:37:45;9.70;99.90
21772;DHT22;11047;47.904;8.110;2023-08-07T01:40:13;9.70;99.90
21772;DHT22;11047;47.904;8.110;2023-08-07T01:42:41;9.70;99.90
21772;DHT22;11047;47.904;8.110;2023-08-07T01:45:08;9.70;99.90
21772;DHT22;11047;47.904;8.110;2023-08-07T01:47:35;9.70;99.90
21772;DHT22;11047;47.904;8.110;2023-08-07T01:50:03;9.70;99.90
21772;DHT22;11047;47.904;8.110;2023-08-07T01:52:30;9.70;99.90
21772;DHT22;11047;47.904;8.110;2023-08-07T01:54:58;9.70;99.90
21772;DHT22;11047;47.904;8.110;2023-08-07T01:57:25;9.70;99.90
21772;DHT22;11047;47.904;8.110;2023-08-07T01:59:52;9.70;99.90
21772;DHT22;11047;47.904;8.110;2023-08-07T02:02:19;9.70;99.90
21772;DHT22;11047;47.904;8.110;2023-08-07T02:04:46;9.70;99.90
21772;DHT22;11047;47.904;8.110;2023-08-07T02:07:13;9.60;99.90
21772;DHT22;11047;47.904;8.110;2023-08-07T02:09:39;9.80;99.90
21772;DHT22;11047;47.904;8.110;2023-08-07T02:12:08;9.60;99.90
21772;DHT22;11047;47.904;8.110;2023-08-07T02:14:35;9.70;99.90
21772;DHT22;11047;47.904;8.110;2023-08-07T02:17:02;9.70;99.90
21772;DHT22;11047;47.904;8.110;2023-08-07T02:19:29;9.70;99.90
21772;DHT22;11047;47.904;8.110;2023-08-07T02:21:56;9.70;99.90
21772;DHT22;11047;47.904;8.110;2023-08-07T02:24:23;9.80;99.90
21772;DHT22;11047;47.904;8.110;2023-08-07T02:26:50;9.80;99.90
21772;DHT22;11047;47.904;8.110;2023-08-07T02:29:18;9.70;99.90
21772;DHT22;11047;47.904;8.110;2023-08-07T02:31:45;9.70;99.90
21772;DHT22;11047;47.904;8.110;2023-08-07T02:34:12;9.70;99.90
21772;DHT22;11047;47.904;8.110;2023-08-07T02:36:39;9.70;99.90
21772;DHT22;11047;47.904;8.110;2023-08-07T02:39:07;9.70;99.90
21772;DHT22;11047;47.904;8.110;2023-08-07T02:41:33;9.80;99.90
21772;DHT22;11047;47.904;8.110;2023-08-07T02:44:00;9.80;99.90
21772;DHT22;11047;47.904;8.110;2023-08-07T02:46:29;9.70;99.90
21772;DHT22;11047;47.904;8.110;2023-08-07T02:48:55;9.70;99.90
21772;DHT22;11047;47.904;8.110;2023-08-07T02:51:22;9.80;99.90
21772;DHT22;11047;47.904;8.110;2023-08-07T02:53:49;9.90;99.90
21772;DHT22;11047;47.904;8.110;2023-08-07T02:56:16;9.80;99.90
21772;DHT22;11047;47.904;8.110;2023-08-07T02:58:43;9.80;99.90
21772;DHT22;11047;47.904;8.110;2023-08-07T03:01:10;9.70;99.90
21772;DHT22;11047;47.904;8.110;2023-08-07T03:03:39;9.80;99.90
21772;DHT22;11047;47.904;8.110;2023-08-07T03:06:06;9.70;99.90
21772;DHT22;11047;47.904;8.110;2023-08-07T03:08:33;9.70;99.90
21772;DHT22;11047;47.904;8.110;2023-08-07T03:11:00;9.70;99.90
21772;DHT22;11047;47.904;8.110;2023-08-07T03:13:27;9.70;99.90
21772;DHT22;11047;47.904;8.110;2023-08-07T03:15:59;9.70;99.90
21772;DHT22;11047;47.904;8.110;2023-08-07T03:18:26;9.70;99.90
21772;DHT22;11047;47.904;8.110;2023-08-07T03:20:54;9.70;99.90
21772;DHT22;11047;47.904;8.110;2023-08-07T03:23:21;9.70;99.90
21772;DHT22;11047;47.904;8.110;2023-08-07T03:25:48;9.70;99.90
21772;DHT22;11047;47.904;8.110;2023-08-07T03:28:15;9.70;99.90
21772;DHT22;11047;47.904;8.110;2023-08-07T03:30:42;9.70;99.90
21772;DHT22;11047;47.904;8.110;2023-08-07T03:33:10;9.70;99.90
21772;DHT22;11047;47.904;8.110;2023-08-07T03:35:37;9.70;99.90
21772;DHT22;11047;47.904;8.110;2023-08-07T03:38:05;9.60;99.90
21772;DHT22;11047;47.904;8.110;2023-08-07T03:40:33;9.60;99.90
21772;DHT22;11047;47.904;8.110;2023-08-07T03:43:00;9.60;99.90
21772;DHT22;11047;47.904;8.110;2023-08-07T03:45:27;9.60;99.90
21772;DHT22;11047;47.904;8.110;2023-08-07T03:47:54;9.80;99.90
21772;DHT22;11047;47.904;8.110;2023-08-07T03:50:20;9.60;99.90
21772;DHT22;11047;47.904;8.110;2023-08-07T03:52:47;9.70;99.90
21772;DHT22;11047;47.904;8.110;2023-08-07T03:55:16;9.70;99.90
21772;DHT22;11047;47.904;8.110;2023-08-07T03:57:43;9.60;99.90
21772;DHT22;11047;47.904;8.110;2023-08-07T04:00:11;9.50;99.90
21772;DHT22;11047;47.904;8.110;2023-08-07T04:02:39;9.50;99.90
21772;DHT22;11047;47.904;8.110;2023-08-07T04:05:06;9.60;99.90
21772;DHT22;11047;47.904;8.110;2023-08-07T04:07:33;9.60;99.90
21772;DHT22;11047;47.904;8.110;2023-08-07T04:10:00;9.60;99.90
21772;DHT22;11047;47.904;8.110;2023-08-07T04:12:28;9.60;99.90
21772;DHT22;11047;47.904;8.110;2023-08-07T04:14:55;9.60;99.90
21772;DHT22;11047;47.904;8.110;2023-08-07T04:17:22;9.60;99.90
21772;DHT22;11047;47.904;8.110;2023-08-07T04:19:49;9.60;99.90
21772;DHT22;11047;47.904;8.110;2023-08-07T04:22:15;9.60;99.90
21772;DHT22;11047;47.904;8.110;2023-08-07T04:24:42;9.60;99.90
21772;DHT22;11047;47.904;8.110;2023-08-07T04:27:09;9.50;99.90
21772;DHT22;11047;47.904;8.110;2023-08-07T04:29:37;9.40;99.90
21772;DHT22;11047;47.904;8.110;2023-08-07T04:32:05;9.40;99.90
21772;DHT22;11047;47.904;8.110;2023-08-07T04:34:32;9.40;99.90
21772;DHT22;11047;47.904;8.110;2023-08-07T04:37:00;9.40;99.90
21772;DHT22;11047;47.904;8.110;2023-08-07T04:39:27;9.20;99.90
21772;DHT22;11047;47.904;8.110;2023-08-07T04:41:54;9.30;99.90
21772;DHT22;11047;47.904;8.110;2023-08-07T04:44:21;9.40;99.90
21772;DHT22;11047;47.904;8.110;2023-08-07T04:46:49;9.40;99.90
21772;DHT22;11047;47.904;8.110;2023-08-07T04:49:17;9.50;99.90
21772;DHT22;11047;47.904;8.110;2023-08-07T04:51:44;9.60;99.90
21772;DHT22;11047;47.904;8.110;2023-08-07T04:54:11;9.40;99.90
21772;DHT22;11047;47.904;8.110;2023-08-07T04:56:38;9.70;99.90
21772;DHT22;11047;47.904;8.110;2023-08-07T04:59:06;9.50;99.90
21772;DHT22;11047;47.904;8.110;2023-08-07T05:01:33;9.50;99.90
21772;DHT22;11047;47.904;8.110;2023-08-07T05:04:01;9.50;99.90
21772;DHT22;11047;47.904;8.110;2023-08-07T05:06:28;9.50;99.90
21772;DHT22;11047;47.904;8.110;2023-08-07T05:08:54;9.60;99.90
21772;DHT22;11047;47.904;8.110;2023-08-07T05:11:21;9.60;99.90
21772;DHT22;11047;47.904;8.110;2023-08-07T05:13:48;9.50;99.90
21772;DHT22;11047;47.904;8.110;2023-08-07T05:16:15;9.60;99.90
21772;DHT22;11047;47.904;8.110;2023-08-07T05:18:44;9.50;99.90
21772;DHT22;11047;47.904;8.110;2023-08-07T05:21:12;9.60;99.90
21772;DHT22;11047;47.904;8.110;2023-08-07T05:23:39;9.60;99.90
21772;DHT22;11047;47.904;8.110;2023-08-07T05:26:06;9.70;99.90
21772;DHT22;11047;47.904;8.110;2023-08-07T05:28:33;9.60;99.90
21772;DHT22;11047;47.904;8.110;2023-08-07T05:31:00;9.90;99.90
21772;DHT22;11047;47.904;8.110;2023-08-07T05:33:27;9.60;99.90
21772;DHT22;11047;47.904;8.110;2023-08-07T05:35:54;9.70;99.90
21772;DHT22;11047;47.904;8.110;2023-08-07T05:38:22;9.70;99.90
21772;DHT22;11047;47.904;8.110;2023-08-07T05:40:49;10.00;99.90
21772;DHT22;11047;47.904;8.110;2023-08-07T05:43:17;9.60;99.90
21772;DHT22;11047;47.904;8.110;2023-08-07T05:45:44;9.70;99.90
21772;DHT22;11047;47.904;8.110;2023-08-07T05:48:12;9.70;99.90
21772;DHT22;11047;47.904;8.110;2023-08-07T05:50:38;9.70;99.90
21772;DHT22;11047;47.904;8.110;2023-08-07T05:53:05;9.70;99.90
21772;DHT22;11047;47.904;8.110;2023-08-07T05:55:34;9.50;99.90
21772;DHT22;11047;47.904;8.110;2023-08-07T05:58:01;9.60;99.90
21772;DHT22;11047;47.904;8.110;2023-08-07T06:00:28;9.70;99.90
21772;DHT22;11047;47.904;8.110;2023-08-07T06:02:54;9.50;99.90
21772;DHT22;11047;47.904;8.110;2023-08-07T06:05:21;9.60;99.90
21772;DHT22;11047;47.904;8.110;2023-08-07T06:07:48;9.50;99.90
21772;DHT22;11047;47.904;8.110;2023-08-07T06:10:15;9.60;99.90
21772;DHT22;11047;47.904;8.110;2023-08-07T06:12:43;9.60;99.90
21772;DHT22;11047;47.904;8.110;2023-08-07T06:15:10;9.60;99.90
21772;DHT22;11047;47.904;8.110;2023-08-07T06:17:37;9.60;99.90
21772;DHT22;11047;47.904;8.110;2023-08-07T06:20:07;9.60;99.90
21772;DHT22;11047;47.904;8.110;2023-08-07T06:22:34;9.60;99.90
21772;DHT22;11047;47.904;8.110;2023-08-07T06:25:01;9.60;99.90
21772;DHT22;11047;47.904;8.110;2023-08-07T06:27:28;9.60;99.90
21772;DHT22;11047;47.904;8.110;2023-08-07T06:29:57;9.70;99.90
21772;DHT22;11047;47.904;8.110;2023-08-07T06:32:25;9.80;99.90
21772;DHT22;11047;47.904;8.110;2023-08-07T06:34:51;9.80;99.90
21772;DHT22;11047;47.904;8.110;2023-08-07T06:37:18;9.90;99.90
21772;DHT22;11047;47.904;8.110;2023-08-07T06:39:45;9.90;99.90
21772;DHT22;11047;47.904;8.110;2023-08-07T06:42:12;9.90;99.90
21772;DHT22;11047;47.904;8.110;2023-08-07T06:44:39;10.00;99.90
21772;DHT22;11047;47.904;8.110;2023-08-07T06:47:08;10.00;99.90
21772;DHT22;11047;47.904;8.110;2023-08-07T06:49:36;10.20;99.90
21772;DHT22;11047;47.904;8.110;2023-08-07T06:52:03;10.10;99.90
21772;DHT22;11047;47.904;8.110;2023-08-07T06:54:30;10.10;99.90
21772;DHT22;11047;47.904;8.110;2023-08-07T06:56:57;10.20;99.90
21772;DHT22;11047;47.904;8.110;2023-08-07T06:59:24;10.30;99.90
21772;DHT22;11047;47.904;8.110;2023-08-07T07:01:51;10.40;99.90
21772;DHT22;11047;47.904;8.110;2023-08-07T07:04:20;10.40;99.90
21772;DHT22;11047;47.904;8.110;2023-08-07T07:06:46;10.50;99.90
21772;DHT22;11047;47.904;8.110;2023-08-07T07:09:13;10.50;99.90
21772;DHT22;11047;47.904;8.110;2023-08-07T07:11:42;10.70;99.90
21772;DHT22;11047;47.904;8.110;2023-08-07T07:14:10;10.70;99.90
21772;DHT22;11047;47.904;8.110;2023-08-07T07:16:37;10.80;99.90
21772;DHT22;11047;47.904;8.110;2023-08-07T07:19:04;11.10;99.90
21772;DHT22;11047;47.904;8.110;2023-08-07T07:21:34;11.10;99.90
21772;DHT22;11047;47.904;8.110;2023-08-07T07:24:01;11.20;99.90
21772;DHT22;11047;47.904;8.110;2023-08-07T07:26:28;11.20;99.90
21772;DHT22;11047;47.904;8.110;2023-08-07T07:28:55;11.30;99.90
21772;DHT22;11047;47.904;8.110;2023-08-07T07:31:22;11.30;99.90
21772;DHT22;11047;47.904;8.110;2023-08-07T07:33:49;11.20;99.90
21772;DHT22;11047;47.904;8.110;2023-08-07T07:36:16;11.10;99.90
21772;DHT22;11047;47.904;8.110;2023-08-07T07:38:46;11.00;99.90
21772;DHT22;11047;47.904;8.110;2023-08-07T07:41:14;10.90;99.90
21772;DHT22;11047;47.904;8.110;2023-08-07T07:43:41;10.90;99.90
21772;DHT22;11047;47.904;8.110;2023-08-07T07:46:08;11.00;99.90
21772;DHT22;11047;47.904;8.110;2023-08-07T07:48:34;11.00;99.90
21772;DHT22;11047;47.904;8.110;2023-08-07T07:51:02;10.80;99.90
21772;DHT22;11047;47.904;8.110;2023-08-07T07:53:29;10.90;99.90
21772;DHT22;11047;47.904;8.110;2023-08-07T07:55:58;11.00;99.90
21772;DHT22;11047;47.904;8.110;2023-08-07T07:58:24;11.40;99.90
21772;DHT22;11047;47.904;8.110;2023-08-07T08:00:51;11.40;99.90
21772;DHT22;11047;47.904;8.110;2023-08-07T08:03:20;11.30;99.90
21772;DHT22;11047;47.904;8.110;2023-08-07T08:05:49;11.30;99.90
21772;DHT22;11047;47.904;8.110;2023-08-07T08:08:16;11.60;99.90
21772;DHT22;11047;47.904;8.110;2023-08-07T08:10:44;11.80;99.90
21772;DHT22;11047;47.904;8.110;2023-08-07T08:13:14;11.90;99.90
21772;DHT22;11047;47.904;8.110;2023-08-07T08:15:41;11.90;99.90
21772;DHT22;11047;47.904;8.110;2023-08-07T08:18:08;11.80;99.90
21772;DHT22;11047;47.904;8.110;2023-08-07T08:20:35;12.30;99.90
21772;DHT22;11047;47.904;8.110;2023-08-07T08:23:02;12.20;99.90
21772;DHT22;11047;47.904;8.110;2023-08-07T08:25:29;12.20;99.90
21772;DHT22;11047;47.904;8.110;2023-08-07T08:27:56;12.10;99.90
21772;DHT22;11047;47.904;8.110;2023-08-07T08:30:24;11.90;99.90
21772;DHT22;11047;47.904;8.110;2023-08-07T08:32:51;12.30;99.90
21772;DHT22;11047;47.904;8.110;2023-08-07T08:35:18;12.60;99.90
21772;DHT22;11047;47.904;8.110;2023-08-07T08:37:45;12.80;99.90
21772;DHT22;11047;47.904;8.110;2023-08-07T08:40:13;12.80;99.90
21772;DHT22;11047;47.904;8.110;2023-08-07T08:42:43;12.60;99.90
21772;DHT22;11047;47.904;8.110;2023-08-07T08:45:12;12.80;99.90
21772;DHT22;11047;47.904;8.110;2023-08-07T08:47:41;13.30;99.90
21772;DHT22;11047;47.904;8.110;2023-08-07T08:50:12;13.20;99.90
21772;DHT22;11047;47.904;8.110;2023-08-07T08:52:42;13.50;99.90
21772;DHT22;11047;47.904;8.110;2023-08-07T08:55:10;13.80;99.90
21772;DHT22;11047;47.904;8.110;2023-08-07T08:57:38;13.70;99.90
21772;DHT22;11047;47.904;8.110;2023-08-07T09:03:03;12.70;99.90
21772;DHT22;11047;47.904;8.110;2023-08-07T09:05:31;12.50;99.90
21772;DHT22;11047;47.904;8.110;2023-08-07T09:07:59;12.40;99.90
21772;DHT22;11047;47.904;8.110;2023-08-07T09:10:27;12.30;99.90
21772;DHT22;11047;47.904;8.110;2023-08-07T09:12:59;12.00;99.90
21772;DHT22;11047;47.904;8.110;2023-08-07T09:15:28;12.00;99.90
21772;DHT22;11047;47.904;8.110;2023-08-07T09:17:56;12.10;99.90
21772;DHT22;11047;47.904;8.110;2023-08-07T09:20:25;12.20;99.90
21772;DHT22;11047;47.904;8.110;2023-08-07T09:22:54;12.20;99.90
21772;DHT22;11047;47.904;8.110;2023-08-07T09:25:27;12.10;99.90
21772;DHT22;11047;47.904;8.110;2023-08-07T09:27:55;11.80;99.90
21772;DHT22;11047;47.904;8.110;2023-08-07T09:30:26;11.80;99.90
21772;DHT22;11047;47.904;8.110;2023-08-07T09:32:53;12.30;99.90
21772;DHT22;11047;47.904;8.110;2023-08-07T09:35:21;12.90;99.90
21772;DHT22;11047;47.904;8.110;2023-08-07T09:37:50;13.20;99.90
21772;DHT22;11047;47.904;8.110;2023-08-07T09:40:18;12.70;99.90
21772;DHT22;11047;47.904;8.110;2023-08-07T09:42:47;13.00;99.90
21772;DHT22;11047;47.904;8.110;2023-08-07T09:45:20;13.10;99.90
21772;DHT22;11047;47.904;8.110;2023-08-07T09:47:52;13.50;99.90
21772;DHT22;11047;47.904;8.110;2023-08-07T09:50:23;13.50;99.90
21772;DHT22;11047;47.904;8.110;2023-08-07T09:52:51;13.50;99.90
21772;DHT22;11047;47.904;8.110;2023-08-07T09:55:18;13.00;99.90
21772;DHT22;11047;47.904;8.110;2023-08-07T09:57:45;12.80;99.90
21772;DHT22;11047;47.904;8.110;2023-08-07T10:00:13;13.20;99.90
21772;DHT22;11047;47.904;8.110;2023-08-07T10:02:41;13.50;99.90
21772;DHT22;11047;47.904;8.110;2023-08-07T10:05:09;13.70;99.90
21772;DHT22;11047;47.904;8.110;2023-08-07T10:07:37;13.70;99.90
21772;DHT22;11047;47.904;8.110;2023-08-07T10:10:06;13.50;99.90
21772;DHT22;11047;47.904;8.110;2023-08-07T10:12:34;13.30;99.90
21772;DHT22;11047;47.904;8.110;2023-08-07T10:15:01;13.10;99.90
21772;DHT22;11047;47.904;8.110;2023-08-07T10:17:28;13.30;99.90
21772;DHT22;11047;47.904;8.110;2023-08-07T10:19:57;13.40;99.90
21772;DHT22;11047;47.904;8.110;2023-08-07T10:22:25;13.60;99.90
21772;DHT22;11047;47.904;8.110;2023-08-07T10:24:54;13.40;99.90
21772;DHT22;11047;47.904;8.110;2023-08-07T10:27:26;13.90;99.90
21772;DHT22;11047;47.904;8.110;2023-08-07T10:29:54;13.60;99.90
21772;DHT22;11047;47.904;8.110;2023-08-07T10:32:25;13.40;99.90
21772;DHT22;11047;47.904;8.110;2023-08-07T10:34:52;13.60;99.90
21772;DHT22;11047;47.904;8.110;2023-08-07T10:37:39;13.50;99.90
21772;DHT22;11047;47.904;8.110;2023-08-07T10:40:08;13.50;99.90
21772;DHT22;11047;47.904;8.110;2023-08-07T10:43:11;13.80;99.90
21772;DHT22;11047;47.904;8.110;2023-08-07T10:45:38;13.70;99.90
21772;DHT22;11047;47.904;8.110;2023-08-07T10:48:06;13.60;99.90
21772;DHT22;11047;47.904;8.110;2023-08-07T10:50:34;13.60;99.90
21772;DHT22;11047;47.904;8.110;2023-08-07T10:53:02;13.40;99.90
21772;DHT22;11047;47.904;8.110;2023-08-07T10:55:43;13.50;99.90
21772;DHT22;11047;47.904;8.110;2023-08-07T10:58:23;14.40;99.90
21772;DHT22;11047;47.904;8.110;2023-08-07T11:00:51;14.90;99.90
21772;DHT22;11047;47.904;8.110;2023-08-07T11:03:26;15.10;99.90
21772;DHT22;11047;47.904;8.110;2023-08-07T11:05:54;15.00;99.90
21772;DHT22;11047;47.904;8.110;2023-08-07T11:08:23;14.60;99.90
21772;DHT22;11047;47.904;8.110;2023-08-07T11:10:51;14.20;99.90
21772;DHT22;11047;47.904;8.110;2023-08-07T11:13:18;13.80;99.90
21772;DHT22;11047;47.904;8.110;2023-08-07T11:15:47;13.50;99.90
21772;DHT22;11047;47.904;8.110;2023-08-07T11:18:14;13.30;99.90
21772;DHT22;11047;47.904;8.110;2023-08-07T11:20:42;13.00;99.90
21772;DHT22;11047;47.904;8.110;2023-08-07T11:23:09;12.90;99.90
21772;DHT22;11047;47.904;8.110;2023-08-07T11:25:37;12.60;99.90
21772;DHT22;11047;47.904;8.110;2023-08-07T11:28:04;12.60;99.90
21772;DHT22;11047;47.904;8.110;2023-08-07T11:30:31;12.80;99.90
21772;DHT22;11047;47.904;8.110;2023-08-07T11:32:59;13.30;99.90
21772;DHT22;11047;47.904;8.110;2023-08-07T11:35:26;13.70;99.90
21772;DHT22;11047;47.904;8.110;2023-08-07T11:37:53;14.30;99.90
21772;DHT22;11047;47.904;8.110;2023-08-07T11:40:20;14.90;99.90
21772;DHT22;11047;47.904;8.110;2023-08-07T11:42:47;15.20;99.90
21772;DHT22;11047;47.904;8.110;2023-08-07T11:45:14;15.20;99.90
21772;DHT22;11047;47.904;8.110;2023-08-07T11:47:41;15.40;99.90
21772;DHT22;11047;47.904;8.110;2023-08-07T11:50:10;15.10;99.90
21772;DHT22;11047;47.904;8.110;2023-08-07T11:52:37;14.90;99.90
21772;DHT22;11047;47.904;8.110;2023-08-07T11:55:06;15.00;99.90
21772;DHT22;11047;47.904;8.110;2023-08-07T11:57:37;14.80;99.90
21772;DHT22;11047;47.904;8.110;2023-08-07T12:00:06;14.60;99.90
21772;DHT22;11047;47.904;8.110;2023-08-07T12:02:41;14.50;99.90
21772;DHT22;11047;47.904;8.110;2023-08-07T12:05:10;14.70;99.90
21772;DHT22;11047;47.904;8.110;2023-08-07T12:07:38;14.80;99.90
21772;DHT22;11047;47.904;8.110;2023-08-07T12:10:07;14.60;99.90
21772;DHT22;11047;47.904;8.110;2023-08-07T12:12:36;14.70;99.90
21772;DHT22;11047;47.904;8.110;2023-08-07T12:15:03;14.70;99.90
21772;DHT22;11047;47.904;8.110;2023-08-07T12:17:31;14.90;99.90
21772;DHT22;11047;47.904;8.110;2023-08-07T12:19:59;14.80;99.90
21772;DHT22;11047;47.904;8.110;2023-08-07T12:22:28;14.70;99.90
21772;DHT22;11047;47.904;8.110;2023-08-07T12:24:55;14.60;99.90
21772;DHT22;11047;47.904;8.110;2023-08-07T12:27:22;14.50;99.90
21772;DHT22;11047;47.904;8.110;2023-08-07T12:29:49;14.90;99.90
21772;DHT22;11047;47.904;8.110;2023-08-07T12:32:16;15.00;99.90
21772;DHT22;11047;47.904;8.110;2023-08-07T12:34:43;15.10;99.90
21772;DHT22;11047;47.904;8.110;2023-08-07T12:37:09;15.60;99.90
21772;DHT22;11047;47.904;8.110;2023-08-07T12:39:38;15.50;99.90
21772;DHT22;11047;47.904;8.110;2023-08-07T12:42:05;15.40;99.90
21772;DHT22;11047;47.904;8.110;2023-08-07T12:44:32;15.50;99.90
21772;DHT22;11047;47.904;8.110;2023-08-07T12:46:59;15.20;99.90
21772;DHT22;11047;47.904;8.110;2023-08-07T12:49:26;14.90;99.90
21772;DHT22;11047;47.904;8.110;2023-08-07T12:51:52;14.60;99.90
21772;DHT22;11047;47.904;8.110;2023-08-07T12:54:22;14.50;99.90
21772;DHT22;11047;47.904;8.110;2023-08-07T12:56:50;14.50;99.90
21772;DHT22;11047;47.904;8.110;2023-08-07T12:59:17;14.20;99.90
21772;DHT22;11047;47.904;8.110;2023-08-07T13:01:44;14.20;99.90
21772;DHT22;11047;47.904;8.110;2023-08-07T13:04:11;14.40;99.90
21772;DHT22;11047;47.904;8.110;2023-08-07T13:06:40;14.70;99.90
21772;DHT22;11047;47.904;8.110;2023-08-07T13:09:07;15.10;99.90
21772;DHT22;11047;47.904;8.110;2023-08-07T13:11:34;15.00;99.90
21772;DHT22;11047;47.904;8.110;2023-08-07T13:14:02;15.30;99.90
21772;DHT22;11047;47.904;8.110;2023-08-07T13:16:29;15.40;99.90
21772;DHT22;11047;47.904;8.110;2023-08-07T13:18:56;15.30;99.90
21772;DHT22;11047;47.904;8.110;2023-08-07T13:21:23;14.90;99.90
21772;DHT22;11047;47.904;8.110;2023-08-07T13:23:50;14.80;99.90
21772;DHT22;11047;47.904;8.110;2023-08-07T13:26:17;14.50;99.90
21772;DHT22;11047;47.904;8.110;2023-08-07T13:28:44;14.40;99.90
21772;DHT22;11047;47.904;8.110;2023-08-07T13:31:12;14.40;99.90
21772;DHT22;11047;47.904;8.110;2023-08-07T13:33:39;14.30;99.90
21772;DHT22;11047;47.904;8.110;2023-08-07T13:36:06;14.50;99.90
21772;DHT22;11047;47.904;8.110;2023-08-07T13:38:33;14.70;99.90
21772;DHT22;11047;47.904;8.110;2023-08-07T13:41:00;14.80;99.90
21772;DHT22;11047;47.904;8.110;2023-08-07T13:43:27;14.80;99.90
21772;DHT22;11047;47.904;8.110;2023-08-07T13:45:54;14.70;99.90
21772;DHT22;11047;47.904;8.110;2023-08-07T13:48:23;14.60;99.90
21772;DHT22;11047;47.904;8.110;2023-08-07T13:50:52;14.40;99.90
21772;DHT22;11047;47.904;8.110;2023-08-07T13:53:19;14.30;99.90
21772;DHT22;11047;47.904;8.110;2023-08-07T13:55:47;14.40;99.90
21772;DHT22;11047;47.904;8.110;2023-08-07T13:58:14;14.30;99.90
21772;DHT22;11047;47.904;8.110;2023-08-07T14:00:41;14.10;99.90
21772;DHT22;11047;47.904;8.110;2023-08-07T14:03:09;13.80;99.90
21772;DHT22;11047;47.904;8.110;2023-08-07T14:05:39;14.20;99.90
21772;DHT22;11047;47.904;8.110;2023-08-07T14:08:06;14.70;99.90
21772;DHT22;11047;47.904;8.110;2023-08-07T14:10:35;14.80;99.90
21772;DHT22;11047;47.904;8.110;2023-08-07T14:13:04;15.10;99.90
21772;DHT22;11047;47.904;8.110;2023-08-07T14:15:31;15.30;99.90
21772;DHT22;11047;47.904;8.110;2023-08-07T14:17:58;15.50;99.90
21772;DHT22;11047;47.904;8.110;2023-08-07T14:20:25;15.40;99.90
21772;DHT22;11047;47.904;8.110;2023-08-07T14:22:54;15.10;99.90
21772;DHT22;11047;47.904;8.110;2023-08-07T14:25:21;14.80;99.90
21772;DHT22;11047;47.904;8.110;2023-08-07T14:27:48;14.60;99.90
21772;DHT22;11047;47.904;8.110;2023-08-07T14:30:15;14.50;99.90
21772;DHT22;11047;47.904;8.110;2023-08-07T14:32:42;14.30;99.90
21772;DHT22;11047;47.904;8.110;2023-08-07T14:35:09;14.30;99.90
21772;DHT22;11047;47.904;8.110;2023-08-07T14:37:36;14.40;99.90
21772;DHT22;11047;47.904;8.110;2023-08-07T14:40:05;14.10;99.90
21772;DHT22;11047;47.904;8.110;2023-08-07T14:42:32;14.50;99.90
21772;DHT22;11047;47.904;8.110;2023-08-07T14:45:00;14.40;99.90
21772;DHT22;11047;47.904;8.110;2023-08-07T14:47:38;14.30;99.90
21772;DHT22;11047;47.904;8.110;2023-08-07T14:50:06;14.40;99.90
21772;DHT22;11047;47.904;8.110;2023-08-07T14:52:33;14.90;99.90
21772;DHT22;11047;47.904;8.110;2023-08-07T14:55:00;15.20;99.90
21772;DHT22;11047;47.904;8.110;2023-08-07T14:57:28;15.30;99.90
21772;DHT22;11047;47.904;8.110;2023-08-07T14:59:55;15.30;99.90
21772;DHT22;11047;47.904;8.110;2023-08-07T15:02:22;15.40;99.90
21772;DHT22;11047;47.904;8.110;2023-08-07T15:04:49;15.40;99.90
21772;DHT22;11047;47.904;8.110;2023-08-07T15:07:16;15.60;99.90
21772;DHT22;11047;47.904;8.110;2023-08-07T15:09:43;15.40;99.90
21772;DHT22;11047;47.904;8.110;2023-08-07T15:12:10;15.20;99.90
21772;DHT22;11047;47.904;8.110;2023-08-07T15:14:38;14.80;99.90
21772;DHT22;11047;47.904;8.110;2023-08-07T15:17:18;14.70;99.90
21772;DHT22;11047;47.904;8.110;2023-08-07T15:19:45;14.90;99.90
21772;DHT22;11047;47.904;8.110;2023-08-07T15:22:12;15.10;99.90
21772;DHT22;11047;47.904;8.110;2023-08-07T15:24:39;14.90;99.90
21772;DHT22;11047;47.904;8.110;2023-08-07T15:27:06;15.10;99.90
21772;DHT22;11047;47.904;8.110;2023-08-07T15:29:33;15.00;99.90
21772;DHT22;11047;47.904;8.110;2023-08-07T15:32:02;14.80;99.90
21772;DHT22;11047;47.904;8.110;2023-08-07T15:34:29;14.90;99.90
21772;DHT22;11047;47.904;8.110;2023-08-07T15:36:56;14.80;99.90
21772;DHT22;11047;47.904;8.110;2023-08-07T15:39:23;14.50;99.90
21772;DHT22;11047;47.904;8.110;2023-08-07T15:41:50;14.40;99.90
21772;DHT22;11047;47.904;8.110;2023-08-07T15:44:17;14.20;99.90